Time;durP1;ratioP1;P1;durP2;ratioP2;P2;SDS_P1;SDS_P2;PMS_P1;PMS_P2;Temp;Humidity;BMP_temperature;BMP_pressure;BME280_temperature;BME280_humidity;BME280_pressure;Samples;Min_cycle;Max_cycle;Signal;HPM_P1;HPM_P2
2023/06/11 00:01:14;;;;;;;14.00;10.23;;;24.00;99.90;;;;;;5029692;28;20381;-71
2023/06/11 00:03:46;;;;;;;12.75;9.80;;;24.00;99.90;;;;;;5019441;28;20029;-71
2023/06/11 00:06:16;;;;;;;;;;;24.00;99.90;;;;;;5020915;28;20051;-71
2023/06/11 00:08:42;;;;;;;10.98;9.88;;;23.90;99.90;;;;;;5026495;28;20269;-71
2023/06/11 00:11:08;;;;;;;10.85;9.73;;;23.90;99.90;;;;;;5022929;28;20033;-71
2023/06/11 00:13:33;;;;;;;11.30;10.27;;;23.90;99.90;;;;;;5020547;28;20018;-71
2023/06/11 00:15:59;;;;;;;12.48;10.30;;;23.80;99.90;;;;;;5031227;28;20030;-71
2023/06/11 00:18:25;;;;;;;15.25;10.38;;;23.80;99.90;;;;;;5025385;28;20098;-71
2023/06/11 00:20:51;;;;;;;12.20;11.10;;;23.80;99.90;;;;;;5027070;28;20040;-71
2023/06/11 00:23:17;;;;;;;14.25;10.95;;;23.70;99.90;;;;;;5032933;28;20029;-71
2023/06/11 00:25:43;;;;;;;12.50;10.75;;;23.70;99.90;;;;;;5025673;28;20033;-71
2023/06/11 00:28:08;;;;;;;12.13;10.80;;;23.60;99.90;;;;;;5029024;28;20079;-71
2023/06/11 00:30:34;;;;;;;14.20;10.73;;;23.60;99.90;;;;;;5028514;28;20022;-71
2023/06/11 00:33:00;;;;;;;11.85;10.73;;;23.60;99.90;;;;;;5024353;28;20036;-71
2023/06/11 00:35:26;;;;;;;14.10;10.68;;;23.60;99.90;;;;;;5024372;28;20421;-71
2023/06/11 00:37:54;;;;;;;12.90;9.85;;;23.50;99.90;;;;;;5030226;28;20042;-72
2023/06/11 00:40:20;;;;;;;13.75;10.75;;;23.50;99.90;;;;;;5024303;28;20025;-72
2023/06/11 00:42:49;;;;;;;13.07;11.68;;;23.40;99.90;;;;;;5022962;28;20040;-72
2023/06/11 00:45:15;;;;;;;12.27;11.02;;;23.40;99.90;;;;;;5027180;28;20022;-72
2023/06/11 00:47:40;;;;;;;12.15;10.95;;;23.40;99.90;;;;;;5030923;28;20030;-72
2023/06/11 00:50:08;;;;;;;17.85;11.07;;;23.40;99.90;;;;;;5023049;28;20151;-72
2023/06/11 00:52:35;;;;;;;12.10;10.57;;;23.40;99.90;;;;;;5021884;28;20021;-72
2023/06/11 00:55:02;;;;;;;11.95;10.32;;;23.30;99.90;;;;;;5021476;28;20057;-71
2023/06/11 00:57:27;;;;;;;12.57;10.52;;;23.30;99.90;;;;;;5019938;28;20161;-72
2023/06/11 00:59:54;;;;;;;12.18;10.82;;;23.30;99.90;;;;;;5031453;28;20466;-71
2023/06/11 01:02:25;;;;;;;16.75;12.52;;;23.20;99.90;;;;;;5020232;28;20053;-71
2023/06/11 01:04:56;;;;;;;12.80;11.60;;;23.10;99.90;;;;;;5021874;28;20029;-72
2023/06/11 01:07:25;;;;;;;17.25;11.38;;;23.10;99.90;;;;;;5028459;28;20025;-71
2023/06/11 01:09:51;;;;;;;17.15;12.27;;;23.10;99.90;;;;;;5026228;28;20036;-72
2023/06/11 01:12:17;;;;;;;12.95;11.65;;;23.00;99.90;;;;;;5020035;28;20032;-72
2023/06/11 01:14:42;;;;;;;15.05;12.43;;;22.90;99.90;;;;;;5024487;28;20045;-72
2023/06/11 01:17:23;;;;;;;13.75;12.02;;;22.90;99.90;;;;;;5020242;28;20022;-71
2023/06/11 01:20:14;;;;;;;15.15;11.52;;;22.90;99.90;;;;;;5019361;28;20029;-72
2023/06/11 01:23:11;;;;;;;13.88;12.43;;;22.90;99.90;;;;;;5021845;28;20064;-72
2023/06/11 01:26:04;;;;;;;16.52;12.73;;;22.70;99.90;;;;;;5003513;28;20056;-71
2023/06/11 01:28:33;;;;;;;13.88;12.38;;;22.80;99.90;;;;;;5016276;28;20034;-71
2023/06/11 01:31:04;;;;;;;15.40;13.25;;;22.70;99.90;;;;;;5021431;28;20010;-72
2023/06/11 01:33:35;;;;;;;12.27;11.00;;;22.60;99.90;;;;;;5026011;28;20038;-71
2023/06/11 01:36:01;;;;;;;14.52;11.70;;;22.60;99.90;;;;;;5024593;28;20338;-71
2023/06/11 01:38:30;;;;;;;17.10;12.57;;;22.50;99.90;;;;;;5018288;28;20022;-71
2023/06/11 01:40:58;;;;;;;13.77;12.23;;;22.50;99.90;;;;;;5031414;28;20104;-71
2023/06/11 01:43:25;;;;;;;15.40;13.05;;;22.50;99.90;;;;;;5020508;28;20095;-72
2023/06/11 01:45:51;;;;;;;15.10;12.73;;;22.50;99.90;;;;;;5022779;28;20017;-71
2023/06/11 01:48:17;;;;;;;15.30;13.90;;;22.50;99.90;;;;;;5028328;28;20109;-71
2023/06/11 01:50:43;;;;;;;18.90;13.80;;;22.50;99.90;;;;;;5030205;28;20024;-72
2023/06/11 01:53:10;;;;;;;14.75;13.27;;;22.40;99.90;;;;;;5027505;28;20025;-72
2023/06/11 01:55:36;;;;;;;16.30;12.82;;;22.30;99.90;;;;;;5018834;28;20033;-71
2023/06/11 01:58:02;;;;;;;14.77;13.38;;;22.30;99.90;;;;;;5026187;28;20021;-72
2023/06/11 02:00:28;;;;;;;13.73;12.43;;;22.30;99.90;;;;;;5026949;28;20055;-71
2023/06/11 02:02:54;;;;;;;16.98;12.82;;;22.30;99.90;;;;;;5027040;28;20033;-71
2023/06/11 02:05:19;;;;;;;15.98;12.40;;;22.20;99.90;;;;;;5002683;28;20575;-71
2023/06/11 02:07:45;;;;;;;14.15;12.60;;;22.20;99.90;;;;;;5029690;28;20017;-71
2023/06/11 02:10:11;;;;;;;15.57;13.88;;;22.10;99.90;;;;;;5014819;28;20384;-71
2023/06/11 02:12:37;;;;;;;14.85;13.45;;;22.10;99.90;;;;;;5025447;28;20056;-72
2023/06/11 02:15:04;;;;;;;15.75;14.25;;;22.10;99.90;;;;;;5020579;28;20030;-71
2023/06/11 02:17:29;;;;;;;16.17;14.68;;;22.10;99.90;;;;;;5025280;28;20017;-72
2023/06/11 02:19:55;;;;;;;16.30;14.60;;;22.10;99.90;;;;;;5023122;28;20535;-71
2023/06/11 02:22:21;;;;;;;18.42;14.00;;;21.90;99.90;;;;;;5023716;28;20040;-72
2023/06/11 02:24:47;;;;;;;15.57;14.00;;;22.00;99.90;;;;;;5029325;28;20022;-71
2023/06/11 02:27:13;;;;;;;15.80;14.30;;;22.00;99.90;;;;;;5025497;28;20422;-72
2023/06/11 02:29:38;;;;;;;21.27;14.57;;;22.00;99.90;;;;;;5019270;28;20022;-71
2023/06/11 02:32:07;;;;;;;17.23;15.45;;;22.00;99.90;;;;;;5026059;28;20033;-72
2023/06/11 02:34:33;;;;;;;16.95;15.25;;;21.90;99.90;;;;;;5030367;28;20034;-72
2023/06/11 02:36:59;;;;;;;17.13;13.40;;;21.80;99.90;;;;;;5032391;28;20022;-71
2023/06/11 02:39:24;;;;;;;16.38;14.75;;;21.70;99.90;;;;;;5021264;28;20026;-71
2023/06/11 02:41:50;;;;;;;16.75;14.80;;;21.70;99.90;;;;;;5027701;28;20423;-71
2023/06/11 02:44:16;;;;;;;15.88;14.38;;;21.70;99.90;;;;;;5030166;28;20056;-72
2023/06/11 02:46:42;;;;;;;17.17;15.02;;;21.60;99.90;;;;;;5029587;28;20025;-71
2023/06/11 02:49:07;;;;;;;15.88;14.20;;;21.60;99.90;;;;;;5022069;28;20024;-72
2023/06/11 02:51:33;;;;;;;16.33;14.73;;;21.70;99.90;;;;;;5032463;28;20032;-71
2023/06/11 02:53:59;;;;;;;16.42;14.68;;;21.70;99.90;;;;;;5022294;28;20077;-72
2023/06/11 02:56:26;;;;;;;17.92;14.75;;;21.70;99.90;;;;;;5010393;28;20021;-71
2023/06/11 02:58:51;;;;;;;17.38;15.20;;;21.70;99.90;;;;;;5034651;28;20029;-71
2023/06/11 03:01:17;;;;;;;16.58;14.75;;;21.70;99.90;;;;;;5025643;28;20119;-71
2023/06/11 03:03:42;;;;;;;17.33;15.60;;;21.60;99.90;;;;;;5023409;28;20037;-72
2023/06/11 03:06:08;;;;;;;17.92;15.50;;;21.60;99.90;;;;;;5029497;28;20385;-72
2023/06/11 03:08:34;;;;;;;19.38;15.98;;;21.50;99.90;;;;;;5017598;28;20064;-72
2023/06/11 03:11:00;;;;;;;18.80;16.98;;;21.60;99.90;;;;;;5025093;28;20010;-72
2023/06/11 03:13:25;;;;;;;18.25;16.50;;;21.50;99.90;;;;;;5007930;28;20440;-72
2023/06/11 03:15:51;;;;;;;17.35;15.55;;;21.50;99.90;;;;;;5016059;28;20017;-71
2023/06/11 03:18:17;;;;;;;20.10;15.25;;;21.50;99.90;;;;;;5029686;28;20517;-71
2023/06/11 03:20:43;;;;;;;18.25;15.75;;;21.50;99.90;;;;;;5031375;28;20397;-72
2023/06/11 03:23:10;;;;;;;18.98;17.10;;;21.50;99.90;;;;;;5024943;28;20077;-72
2023/06/11 03:25:36;;;;;;;18.00;16.30;;;21.40;99.90;;;;;;5023116;28;20025;-72
2023/06/11 03:28:02;;;;;;;18.27;16.48;;;21.30;99.90;;;;;;5026031;28;20385;-72
2023/06/11 03:30:28;;;;;;;17.85;16.15;;;21.30;99.90;;;;;;5025683;28;20052;-72
2023/06/11 03:32:54;;;;;;;19.42;17.48;;;21.30;99.90;;;;;;5021997;28;20064;-72
2023/06/11 03:35:20;;;;;;;18.33;15.77;;;21.30;99.90;;;;;;5031085;28;20036;-71
2023/06/11 03:37:45;;;;;;;17.15;15.35;;;21.30;99.90;;;;;;5027831;28;20030;-71
2023/06/11 03:40:11;;;;;;;17.45;15.25;;;21.20;99.90;;;;;;5016088;28;20021;-72
2023/06/11 03:42:37;;;;;;;17.20;15.48;;;21.20;99.90;;;;;;5025092;28;20073;-72
2023/06/11 03:45:03;;;;;;;17.08;15.18;;;21.10;99.90;;;;;;5027391;28;20018;-72
2023/06/11 03:47:28;;;;;;;16.52;14.77;;;21.00;99.90;;;;;;5025980;28;20393;-72
2023/06/11 03:49:54;;;;;;;18.02;16.13;;;21.00;99.90;;;;;;5027796;28;20072;-71
2023/06/11 03:52:20;;;;;;;16.65;14.95;;;21.00;99.90;;;;;;5031175;28;20029;-71
2023/06/11 03:54:46;;;;;;;18.27;16.58;;;21.00;99.90;;;;;;5030907;28;20026;-72
2023/06/11 03:57:12;;;;;;;18.50;16.60;;;20.90;99.90;;;;;;5028858;28;20379;-72
2023/06/11 03:59:38;;;;;;;20.45;17.75;;;20.90;99.90;;;;;;5029976;28;20044;-71
2023/06/11 04:02:04;;;;;;;18.25;15.68;;;21.00;99.90;;;;;;5022281;28;20163;-72
2023/06/11 04:04:32;;;;;;;20.20;17.08;;;20.90;99.90;;;;;;5021771;28;20491;-72
2023/06/11 04:06:57;;;;;;;17.77;16.10;;;20.80;99.90;;;;;;5028216;28;20039;-72
2023/06/11 04:09:23;;;;;;;16.90;15.10;;;20.80;99.90;;;;;;5022193;28;20381;-72
2023/06/11 04:11:49;;;;;;;19.88;17.95;;;20.80;99.90;;;;;;5024868;28;20095;-72
2023/06/11 04:14:14;;;;;;;19.42;17.27;;;20.80;99.90;;;;;;5030911;28;20088;-71
2023/06/11 04:16:40;;;;;;;17.55;15.77;;;20.80;99.90;;;;;;5028393;28;20057;-72
2023/06/11 04:19:06;;;;;;;17.45;15.63;;;20.80;99.90;;;;;;5018732;28;20383;-71
2023/06/11 04:21:31;;;;;;;19.40;17.23;;;20.80;99.90;;;;;;5030218;28;20030;-72
2023/06/11 04:23:57;;;;;;;18.75;16.52;;;20.80;99.90;;;;;;5029392;28;20025;-71
2023/06/11 04:26:23;;;;;;;20.27;16.50;;;20.80;99.90;;;;;;5022818;28;20030;-71
2023/06/11 04:28:50;;;;;;;19.70;17.67;;;20.80;99.90;;;;;;5021328;28;20030;-72
2023/06/11 04:31:16;;;;;;;20.08;18.15;;;20.80;99.90;;;;;;5023208;28;20030;-71
2023/06/11 04:33:42;;;;;;;18.33;16.58;;;20.80;99.90;;;;;;5027269;28;20506;-72
2023/06/11 04:36:09;;;;;;;16.92;15.38;;;20.90;99.90;;;;;;5019066;28;20032;-72
2023/06/11 04:38:36;;;;;;;18.60;16.80;;;20.90;99.90;;;;;;5019835;28;20025;-72
2023/06/11 04:41:11;;;;;;;17.60;16.00;;;20.80;99.90;;;;;;5020997;28;20037;-72
2023/06/11 04:43:36;;;;;;;17.98;16.17;;;20.80;99.90;;;;;;5026297;28;20053;-71
2023/06/11 04:46:03;;;;;;;18.35;16.55;;;20.80;99.90;;;;;;5022140;28;20021;-72
2023/06/11 04:48:34;;;;;;;19.77;17.65;;;20.80;99.90;;;;;;5017294;28;20026;-72
2023/06/11 04:51:01;;;;;;;18.52;16.52;;;20.80;99.90;;;;;;5022004;28;20072;-72
2023/06/11 04:53:28;;;;;;;19.45;17.42;;;20.80;99.90;;;;;;5023667;28;20100;-72
2023/06/11 04:55:56;;;;;;;19.13;17.10;;;20.80;99.90;;;;;;5028305;28;20059;-71
2023/06/11 04:58:23;;;;;;;18.30;16.40;;;20.80;99.90;;;;;;5025501;28;20488;-72
2023/06/11 05:00:49;;;;;;;19.05;17.08;;;20.80;99.90;;;;;;5031195;28;20017;-72
2023/06/11 05:03:19;;;;;;;16.58;15.07;;;20.90;99.90;;;;;;5026515;28;20462;-72
2023/06/11 05:05:51;;;;;;;18.73;16.92;;;20.90;99.90;;;;;;5023893;28;20504;-71
2023/06/11 05:08:18;;;;;;;19.00;17.17;;;20.90;99.90;;;;;;5020025;28;20026;-71
2023/06/11 05:10:44;;;;;;;19.60;16.73;;;21.00;99.90;;;;;;5023069;28;20026;-71
2023/06/11 05:13:11;;;;;;;17.10;15.50;;;21.00;99.90;;;;;;5022161;28;20485;-71
2023/06/11 05:15:37;;;;;;;16.35;14.75;;;21.00;99.90;;;;;;5022422;28;20022;-71
2023/06/11 05:18:03;;;;;;;19.80;18.00;;;20.90;99.90;;;;;;5018054;28;20515;-71
2023/06/11 05:20:29;;;;;;;17.48;15.13;;;20.90;99.90;;;;;;5022375;28;20018;-71
2023/06/11 05:22:58;;;;;;;18.05;16.15;;;21.00;99.90;;;;;;5023538;28;20044;-71
2023/06/11 05:25:28;;;;;;;18.05;16.35;;;20.90;99.90;;;;;;5017746;28;20049;-71
2023/06/11 05:27:58;;;;;;;17.55;15.57;;;21.00;99.90;;;;;;5010555;28;20031;-71
2023/06/11 05:30:25;;;;;;;17.70;15.85;;;21.10;99.90;;;;;;5023698;28;20010;-71
2023/06/11 05:32:53;;;;;;;16.42;14.75;;;21.00;99.90;;;;;;5015815;28;20102;-70
2023/06/11 05:35:20;;;;;;;17.95;15.20;;;21.10;99.90;;;;;;5025539;28;20384;-71
2023/06/11 05:37:46;;;;;;;15.02;13.55;;;21.10;99.90;;;;;;5021416;28;20057;-71
2023/06/11 05:40:12;;;;;;;18.05;15.23;;;21.20;99.90;;;;;;5024800;28;20052;-71
2023/06/11 05:42:38;;;;;;;18.38;15.93;;;21.10;99.90;;;;;;5022911;28;20037;-72
2023/06/11 05:45:05;;;;;;;17.15;15.18;;;21.20;99.90;;;;;;5022996;28;20073;-71
2023/06/11 05:47:35;;;;;;;19.25;15.23;;;21.20;99.90;;;;;;5029389;28;20109;-71
2023/06/11 05:50:01;;;;;;;17.92;16.02;;;21.30;99.90;;;;;;5017332;28;20037;-71
2023/06/11 05:52:27;;;;;;;17.60;15.00;;;21.30;99.90;;;;;;5006680;28;20496;-71
2023/06/11 05:54:53;;;;;;;17.13;13.85;;;21.30;99.90;;;;;;5021610;28;20029;-71
2023/06/11 05:57:24;;;;;;;15.85;14.27;;;21.30;99.90;;;;;;5027670;28;20393;-71
2023/06/11 05:59:53;;;;;;;14.73;13.20;;;21.30;99.90;;;;;;5029195;28;20021;-72
2023/06/11 06:02:19;;;;;;;17.77;14.48;;;21.40;99.90;;;;;;5019490;28;20045;-72
2023/06/11 06:04:49;;;;;;;15.82;13.15;;;21.40;99.90;;;;;;5006280;28;20030;-71
2023/06/11 06:07:15;;;;;;;13.52;12.15;;;21.50;99.90;;;;;;5030673;28;20032;-71
2023/06/11 06:09:41;;;;;;;14.88;11.63;;;21.50;99.90;;;;;;5031769;28;20026;-70
2023/06/11 06:12:07;;;;;;;14.18;11.80;;;21.50;99.90;;;;;;5021832;28;20092;-72
2023/06/11 06:14:33;;;;;;;15.35;11.55;;;21.60;99.90;;;;;;5033006;28;20080;-74
2023/06/11 06:16:59;;;;;;;13.38;11.90;;;21.60;99.90;;;;;;5017547;28;20026;-73
2023/06/11 06:19:24;;;;;;;14.77;11.70;;;21.70;99.90;;;;;;5024142;28;20075;-73
2023/06/11 06:21:50;;;;;;;14.25;11.55;;;21.80;99.90;;;;;;5015190;28;20040;-73
2023/06/11 06:24:16;;;;;;;13.77;11.35;;;21.90;99.90;;;;;;5030544;28;20014;-73
2023/06/11 06:26:42;;;;;;;13.48;11.13;;;22.00;99.90;;;;;;5033992;28;20029;-73
2023/06/11 06:29:08;;;;;;;14.40;11.75;;;22.00;99.90;;;;;;5026181;28;20025;-73
2023/06/11 06:31:36;;;;;;;16.58;11.27;;;22.10;99.90;;;;;;5015312;28;20030;-73
2023/06/11 06:34:02;;;;;;;13.15;11.60;;;22.20;99.90;;;;;;5028993;28;20033;-74
2023/06/11 06:36:28;;;;;;;14.25;12.00;;;22.30;99.90;;;;;;5027513;28;20045;-73
2023/06/11 06:38:54;;;;;;;13.52;12.02;;;22.40;99.90;;;;;;5027518;28;20094;-73
2023/06/11 06:41:20;;;;;;;13.13;11.82;;;22.40;99.90;;;;;;5022806;28;20381;-73
2023/06/11 06:43:45;;;;;;;13.07;11.77;;;22.50;99.90;;;;;;5029914;28;20029;-73
2023/06/11 06:46:11;;;;;;;12.32;11.00;;;22.70;99.90;;;;;;5027294;28;20040;-73
2023/06/11 06:48:37;;;;;;;13.77;10.70;;;22.90;99.90;;;;;;5030757;28;20120;-72
2023/06/11 06:51:02;;;;;;;11.63;10.52;;;23.00;99.90;;;;;;5028655;28;20425;-72
2023/06/11 06:53:28;;;;;;;12.43;10.98;;;23.20;99.90;;;;;;5025759;28;20383;-72
2023/06/11 06:55:54;;;;;;;15.32;10.48;;;23.30;99.90;;;;;;5025789;28;20196;-71
2023/06/11 06:58:20;;;;;;;11.60;9.25;;;23.50;99.90;;;;;;5032114;28;20488;-72
2023/06/11 07:00:45;;;;;;;10.80;9.75;;;23.60;99.90;;;;;;5035863;28;20022;-72
2023/06/11 07:03:13;;;;;;;10.38;9.45;;;23.90;99.90;;;;;;5030581;28;20041;-73
2023/06/11 07:05:40;;;;;;;10.82;9.82;;;23.90;99.90;;;;;;5023652;28;20474;-72
2023/06/11 07:08:05;;;;;;;10.90;10.00;;;24.10;99.90;;;;;;5016247;28;20030;-73
2023/06/11 07:10:31;;;;;;;14.57;10.10;;;24.20;99.90;;;;;;5014138;28;20022;-72
2023/06/11 07:12:57;;;;;;;10.10;9.07;;;24.40;99.90;;;;;;5011828;28;20025;-72
2023/06/11 07:15:22;;;;;;;11.02;9.80;;;24.40;99.90;;;;;;5024727;28;20539;-72
2023/06/11 07:17:48;;;;;;;11.15;9.70;;;24.60;99.90;;;;;;5009572;28;20377;-72
2023/06/11 07:20:14;;;;;;;10.80;9.70;;;24.70;99.90;;;;;;5012598;28;20034;-72
2023/06/11 07:22:40;;;;;;;11.25;10.05;;;24.80;99.90;;;;;;5029485;28;20038;-70
2023/06/11 07:25:06;;;;;;;10.77;9.65;;;24.80;99.90;;;;;;5023951;28;20026;-70
2023/06/11 07:27:32;;;;;;;15.40;9.85;;;24.90;99.90;;;;;;5030046;28;20017;-72
2023/06/11 07:29:57;;;;;;;9.77;8.88;;;25.00;99.90;;;;;;5030395;28;20097;-70
2023/06/11 07:32:23;;;;;;;11.50;9.70;;;25.20;99.90;;;;;;5023457;28;20378;-71
2023/06/11 07:34:49;;;;;;;13.25;10.98;;;25.30;99.90;;;;;;5026412;28;20030;-70
2023/06/11 07:37:14;;;;;;;10.85;9.85;;;25.50;99.90;;;;;;5024352;28;20029;-70
2023/06/11 07:39:40;;;;;;;11.27;9.27;;;25.50;99.90;;;;;;5027374;28;20455;-69
2023/06/11 07:42:06;;;;;;;11.93;9.73;;;25.70;99.90;;;;;;5025910;28;20587;-69
2023/06/11 07:44:32;;;;;;;10.98;9.63;;;25.80;99.90;;;;;;5028580;28;20025;-68
2023/06/11 07:46:58;;;;;;;10.77;9.80;;;25.90;99.90;;;;;;5020635;28;20026;-69
2023/06/11 07:49:23;;;;;;;12.55;9.98;;;25.90;99.90;;;;;;5029664;28;20072;-70
2023/06/11 07:51:49;;;;;;;10.70;9.40;;;26.00;99.90;;;;;;5032316;28;20044;-71
2023/06/11 07:54:15;;;;;;;10.73;9.68;;;26.10;99.90;;;;;;5018803;28;20018;-71
2023/06/11 07:56:41;;;;;;;15.50;9.30;;;26.30;99.90;;;;;;5025683;28;20034;-71
2023/06/11 07:59:07;;;;;;;11.73;10.10;;;26.40;99.90;;;;;;5028805;28;20032;-70
2023/06/11 08:01:33;;;;;;;10.15;9.25;;;26.40;99.90;;;;;;5013550;28;20316;-71
2023/06/11 08:03:58;;;;;;;12.32;10.10;;;26.50;99.90;;;;;;5023750;28;20022;-71
2023/06/11 08:06:24;;;;;;;14.45;9.77;;;26.70;99.90;;;;;;5032104;28;20017;-71
2023/06/11 08:08:50;;;;;;;13.27;10.15;;;26.70;99.90;;;;;;5030212;28;20082;-70
2023/06/11 08:11:16;;;;;;;11.40;10.30;;;26.90;99.90;;;;;;5022220;28;20042;-71
2023/06/11 08:13:42;;;;;;;15.65;10.50;;;26.90;99.90;;;;;;5026530;28;20029;-71
2023/06/11 08:16:08;;;;;;;13.57;9.63;;;27.00;99.90;;;;;;5027264;28;20032;-70
2023/06/11 08:18:34;;;;;;;12.75;9.48;;;27.10;99.90;;;;;;5026896;28;20173;-71
2023/06/11 08:21:00;;;;;;;10.77;9.60;;;27.20;99.90;;;;;;5024640;28;20101;-71
2023/06/11 08:23:26;;;;;;;11.25;10.15;;;27.30;99.90;;;;;;5022388;28;20061;-71
2023/06/11 08:25:58;;;;;;;9.73;8.70;;;27.40;99.90;;;;;;5025688;28;20045;-70
2023/06/11 08:28:24;;;;;;;9.52;8.65;;;27.50;99.90;;;;;;5022884;28;20022;-72
2023/06/11 08:30:50;;;;;;;10.50;9.50;;;27.60;99.90;;;;;;5018839;28;20028;-72
2023/06/11 08:33:17;;;;;;;9.82;8.93;;;27.60;99.90;;;;;;5015832;28;20028;-70
2023/06/11 08:35:43;;;;;;;10.35;8.93;;;27.70;99.90;;;;;;5027931;28;20026;-70
2023/06/11 08:38:08;;;;;;;8.80;8.05;;;27.90;99.90;;;;;;5028944;28;20067;-71
2023/06/11 08:40:40;;;;;;;10.30;9.25;;;28.10;99.90;;;;;;5023884;28;20040;-71
2023/06/11 08:43:06;;;;;;;9.07;8.13;;;28.10;99.90;;;;;;5007287;28;20065;-71
2023/06/11 08:45:32;;;;;;;8.75;7.95;;;28.10;99.90;;;;;;5027168;28;20025;-71
2023/06/11 08:48:03;;;;;;;9.38;8.38;;;28.30;99.90;;;;;;5029723;28;20021;-72
2023/06/11 08:50:31;;;;;;;10.70;8.60;;;28.40;99.90;;;;;;5026456;28;20022;-72
2023/06/11 08:53:00;;;;;;;9.95;8.55;;;28.60;99.90;;;;;;5017637;28;20025;-73
2023/06/11 08:55:27;;;;;;;10.55;8.52;;;28.80;99.90;;;;;;5012483;28;20498;-73
2023/06/11 08:57:53;;;;;;;10.90;8.73;;;28.90;99.90;;;;;;5027412;28;20025;-73
2023/06/11 09:00:19;;;;;;;12.02;9.10;;;28.90;99.90;;;;;;5021141;28;20029;-72
2023/06/11 09:02:45;;;;;;;8.60;7.90;;;29.10;99.90;;;;;;5023642;28;20041;-72
2023/06/11 09:05:11;;;;;;;9.23;8.45;;;29.20;99.90;;;;;;5027549;28;20018;-71
2023/06/11 09:07:37;;;;;;;12.35;8.88;;;29.20;99.90;;;;;;5023011;28;20052;-72
2023/06/11 09:10:06;;;;;;;9.63;8.65;;;29.30;99.90;;;;;;5020642;28;20457;-72
2023/06/11 09:12:31;;;;;;;9.38;8.40;;;29.40;99.90;;;;;;5017156;28;20021;-72
2023/06/11 09:14:57;;;;;;;9.30;8.40;;;29.50;99.90;;;;;;5010906;28;20426;-72
2023/06/11 09:17:23;;;;;;;12.30;8.30;;;29.50;99.90;;;;;;5024938;28;20037;-72
2023/06/11 09:19:53;;;;;;;10.13;9.00;;;29.70;99.90;;;;;;5021234;28;20101;-73
2023/06/11 09:22:26;;;;;;;9.27;8.07;;;29.80;99.90;;;;;;5023468;28;20485;-72
2023/06/11 09:24:51;;;;;;;9.07;8.13;;;29.80;99.90;;;;;;5024573;28;20020;-72
2023/06/11 09:27:21;;;;;;;8.38;7.75;;;29.90;99.90;;;;;;5020115;28;20030;-73
2023/06/11 09:29:46;;;;;;;8.15;7.35;;;29.90;99.90;;;;;;5022346;28;20033;-73
2023/06/11 09:32:12;;;;;;;7.50;6.75;;;29.90;99.90;;;;;;5009937;28;20026;-72
2023/06/11 09:34:40;;;;;;;7.82;7.10;;;30.00;99.90;;;;;;5021134;28;20034;-73
2023/06/11 09:37:14;;;;;;;8.00;7.00;;;30.10;99.90;;;;;;5016401;28;20484;-73
2023/06/11 09:39:42;;;;;;;10.45;7.85;;;30.30;99.90;;;;;;5002900;28;20018;-72
2023/06/11 09:42:13;;;;;;;8.23;7.40;;;30.20;99.90;;;;;;5025453;28;20029;-73
2023/06/11 09:44:45;;;;;;;8.48;7.47;;;30.50;99.90;;;;;;5030575;28;20466;-73
2023/06/11 09:47:11;;;;;;;7.47;6.78;;;30.40;99.90;;;;;;5028376;28;20068;-74
2023/06/11 09:49:38;;;;;;;7.72;7.03;;;30.60;99.90;;;;;;5032059;28;20049;-72
2023/06/11 09:52:05;;;;;;;8.02;7.13;;;30.50;99.90;;;;;;5025382;28;20029;-75
2023/06/11 09:54:31;;;;;;;7.32;6.57;;;30.60;99.90;;;;;;5025526;28;20580;-73
2023/06/11 09:56:56;;;;;;;7.50;6.80;;;30.80;99.90;;;;;;5025615;28;20029;-75
2023/06/11 09:59:23;;;;;;;7.80;7.00;;;30.70;99.70;;;;;;5024450;28;20022;-75
2023/06/11 10:01:50;;;;;;;7.63;6.97;;;30.90;99.90;;;;;;5032845;28;20033;-74
2023/06/11 10:04:16;;;;;;;11.48;6.55;;;30.90;99.90;;;;;;5029996;28;20021;-72
2023/06/11 10:06:45;;;;;;;7.80;7.10;;;31.00;98.70;;;;;;5024820;28;20033;-70
2023/06/11 10:09:14;;;;;;;11.10;7.07;;;31.10;99.10;;;;;;5021082;28;20211;-73
2023/06/11 10:11:40;;;;;;;7.82;7.13;;;31.20;99.20;;;;;;5029326;28;20067;-73
2023/06/11 10:14:15;;;;;;;7.75;7.05;;;31.20;99.90;;;;;;5025674;28;20022;-74
2023/06/11 10:16:49;;;;;;;8.43;7.15;;;31.20;97.70;;;;;;5026845;28;20025;-74
2023/06/11 10:19:15;;;;;;;8.23;6.88;;;31.20;96.80;;;;;;5027774;28;20100;-71
2023/06/11 10:21:50;;;;;;;7.53;6.85;;;31.60;98.30;;;;;;5027373;28;20115;-72
2023/06/11 10:24:23;;;;;;;13.40;6.95;;;31.40;96.70;;;;;;5028538;28;20033;-74
2023/06/11 10:27:13;;;;;;;8.45;6.80;;;31.40;98.10;;;;;;5015187;28;20036;-72
2023/06/11 10:29:41;;;;;;;9.20;7.13;;;31.40;97.90;;;;;;5027707;28;20076;-73
2023/06/11 10:32:19;;;;;;;9.23;7.35;;;31.40;97.40;;;;;;5025109;28;20048;-71
2023/06/11 10:34:53;;;;;;;8.63;7.40;;;31.40;97.80;;;;;;5026360;28;20026;-74
2023/06/11 10:37:46;;;;;;;9.70;6.45;;;31.40;97.20;;;;;;5030193;28;20044;-73
2023/06/11 10:40:12;;;;;;;7.63;6.75;;;31.40;97.10;;;;;;5028504;28;20112;-70
2023/06/11 10:42:39;;;;;;;7.38;6.72;;;31.50;95.70;;;;;;5025309;28;20565;-72
2023/06/11 10:45:12;;;;;;;6.88;6.38;;;31.70;96.00;;;;;;5031271;28;20082;-70
2023/06/11 10:47:54;;;;;;;7.00;6.45;;;31.80;97.10;;;;;;5030716;28;20087;-69
2023/06/11 10:50:31;;;;;;;6.85;6.18;;;31.70;95.00;;;;;;5028751;28;20080;-70
2023/06/11 10:53:03;;;;;;;6.75;6.13;;;31.70;95.60;;;;;;5030495;28;20381;-73
2023/06/11 10:55:30;;;;;;;6.95;6.20;;;31.70;94.00;;;;;;5026666;28;20026;-71
2023/06/11 10:57:57;;;;;;;6.72;6.20;;;31.70;94.60;;;;;;5027441;28;20025;-69
2023/06/11 11:00:23;;;;;;;5.70;5.30;;;32.10;95.00;;;;;;5032195;28;20330;-70
2023/06/11 11:02:51;;;;;;;7.32;6.43;;;32.30;92.50;;;;;;5028451;28;20190;-73
2023/06/11 11:05:16;;;;;;;6.05;5.45;;;32.40;94.80;;;;;;5013813;28;20079;-70
2023/06/11 11:07:44;;;;;;;5.68;5.00;;;32.40;92.20;;;;;;5027329;28;20029;-70
2023/06/11 11:10:12;;;;;;;5.80;5.30;;;32.50;93.50;;;;;;5025167;28;20017;-71
2023/06/11 11:12:39;;;;;;;6.03;5.55;;;32.60;92.20;;;;;;5019885;28;20036;-71
2023/06/11 11:15:05;;;;;;;7.05;5.38;;;32.40;90.60;;;;;;5019837;28;20101;-70
2023/06/11 11:17:32;;;;;;;6.65;5.93;;;32.40;91.20;;;;;;5010067;28;20481;-71
2023/06/11 11:19:58;;;;;;;7.93;5.47;;;32.50;91.10;;;;;;5025245;28;20016;-70
2023/06/11 11:22:29;;;;;;;10.98;5.70;;;32.60;92.00;;;;;;5022163;28;20034;-70
2023/06/11 11:24:59;;;;;;;5.88;5.38;;;32.90;92.60;;;;;;5029445;28;20491;-71
2023/06/11 11:27:25;;;;;;;5.53;4.97;;;32.90;92.40;;;;;;5025540;28;20474;-70
2023/06/11 11:29:50;;;;;;;6.22;5.60;;;33.00;91.70;;;;;;5030467;28;20035;-70
2023/06/11 11:32:17;;;;;;;6.05;4.45;;;33.00;90.90;;;;;;5021196;28;20068;-70
2023/06/11 11:34:44;;;;;;;7.78;5.55;;;32.90;89.50;;;;;;5027942;28;20025;-69
2023/06/11 11:37:10;;;;;;;5.88;5.25;;;32.90;88.70;;;;;;5023238;28;20022;-69
2023/06/11 11:39:36;;;;;;;6.45;5.70;;;32.80;90.00;;;;;;5021579;28;20036;-70
2023/06/11 11:42:02;;;;;;;6.15;5.18;;;32.80;89.20;;;;;;5018243;28;20053;-70
2023/06/11 11:44:42;;;;;;;6.07;5.35;;;33.00;90.60;;;;;;5026588;28;20055;-71
2023/06/11 11:47:11;;;;;;;6.55;5.20;;;33.10;89.40;;;;;;5025122;28;20021;-70
2023/06/11 11:49:38;;;;;;;5.43;5.03;;;33.20;87.40;;;;;;5017620;28;20460;-71
2023/06/11 11:52:11;;;;;;;5.78;5.28;;;33.20;90.10;;;;;;5016535;28;20029;-74
2023/06/11 11:54:43;;;;;;;5.07;4.68;;;33.20;86.50;;;;;;5031789;28;20070;-71
2023/06/11 11:57:08;;;;;;;8.52;4.85;;;33.00;89.60;;;;;;5028428;28;20051;-71
2023/06/11 11:59:38;;;;;;;5.80;4.80;;;33.20;87.60;;;;;;5029617;28;20465;-71
2023/06/11 12:02:04;;;;;;;5.82;5.32;;;33.30;90.10;;;;;;5025992;28;20496;-71
2023/06/11 12:04:45;;;;;;;8.35;5.13;;;33.30;88.60;;;;;;5020084;28;20049;-71
2023/06/11 12:07:17;;;;;;;5.60;5.07;;;33.30;87.30;;;;;;5027558;28;20081;-71
2023/06/11 12:09:42;;;;;;;;;;;33.50;88.90;;;;;;5027845;28;20490;-72
2023/06/11 12:12:09;;;;;;;5.10;4.68;;;33.30;87.30;;;;;;5024717;28;19960;-71
2023/06/11 12:14:35;;;;;;;4.97;4.57;;;33.30;88.00;;;;;;5025316;28;20072;-71
2023/06/11 12:17:02;;;;;;;5.63;5.03;;;33.30;87.40;;;;;;5008299;28;20025;-71
2023/06/11 12:19:32;;;;;;;5.78;5.35;;;33.50;88.20;;;;;;5022945;28;20417;-71
2023/06/11 12:21:58;;;;;;;5.20;4.70;;;33.40;84.80;;;;;;5021973;28;20032;-70
2023/06/11 12:24:24;;;;;;;5.07;4.68;;;33.40;90.00;;;;;;5013496;28;20018;-70
2023/06/11 12:26:51;;;;;;;5.78;5.38;;;33.50;86.10;;;;;;5027869;28;20032;-70
2023/06/11 12:29:17;;;;;;;6.82;4.68;;;33.70;85.90;;;;;;5025686;28;20018;-70
2023/06/11 12:31:45;;;;;;;4.97;4.45;;;33.30;82.30;;;;;;5011928;28;20060;-71
2023/06/11 12:34:15;;;;;;;6.70;4.53;;;33.30;84.60;;;;;;5025746;28;20029;-71
2023/06/11 12:36:46;;;;;;;5.35;4.85;;;33.00;84.30;;;;;;5028750;28;20359;-71